sensor_id;sensor_type;location;lat;lon;timestamp;temperature;humidity
28608;DHT22;15802;45.654;13.804;2023-04-19T00:02:16;15.00;99.90
28608;DHT22;15802;45.654;13.804;2023-04-19T00:04:43;14.90;99.90
28608;DHT22;15802;45.654;13.804;2023-04-19T00:07:09;14.90;99.90
28608;DHT22;15802;45.654;13.804;2023-04-19T00:09:35;14.90;99.90
28608;DHT22;15802;45.654;13.804;2023-04-19T00:12:01;14.90;99.90
28608;DHT22;15802;45.654;13.804;2023-04-19T00:14:27;14.90;99.90
28608;DHT22;15802;45.654;13.804;2023-04-19T00:16:52;14.90;99.90
28608;DHT22;15802;45.654;13.804;2023-04-19T00:19:18;14.90;99.90
28608;DHT22;15802;45.654;13.804;2023-04-19T00:21:44;14.90;99.90
28608;DHT22;15802;45.654;13.804;2023-04-19T00:24:09;14.90;99.90
28608;DHT22;15802;45.654;13.804;2023-04-19T00:26:35;14.90;99.90
28608;DHT22;15802;45.654;13.804;2023-04-19T00:29:01;14.80;99.90
28608;DHT22;15802;45.654;13.804;2023-04-19T00:31:26;14.70;99.90
28608;DHT22;15802;45.654;13.804;2023-04-19T00:33:55;14.80;99.90
28608;DHT22;15802;45.654;13.804;2023-04-19T00:36:21;14.70;99.90
28608;DHT22;15802;45.654;13.804;2023-04-19T00:38:46;14.70;99.90
28608;DHT22;15802;45.654;13.804;2023-04-19T00:41:12;14.70;99.90
28608;DHT22;15802;45.654;13.804;2023-04-19T00:43:37;14.70;99.90
28608;DHT22;15802;45.654;13.804;2023-04-19T00:46:03;14.60;99.90
28608;DHT22;15802;45.654;13.804;2023-04-19T00:48:29;14.60;99.90
28608;DHT22;15802;45.654;13.804;2023-04-19T00:50:55;14.60;99.90
28608;DHT22;15802;45.654;13.804;2023-04-19T00:53:20;14.60;99.90
28608;DHT22;15802;45.654;13.804;2023-04-19T00:55:46;14.60;99.90
28608;DHT22;15802;45.654;13.804;2023-04-19T00:58:15;14.60;99.90
28608;DHT22;15802;45.654;13.804;2023-04-19T01:00:42;14.60;99.90
28608;DHT22;15802;45.654;13.804;2023-04-19T01:03:08;14.50;99.90
28608;DHT22;15802;45.654;13.804;2023-04-19T01:05:34;14.50;99.90
28608;DHT22;15802;45.654;13.804;2023-04-19T01:08:00;14.50;99.90
28608;DHT22;15802;45.654;13.804;2023-04-19T01:10:25;14.50;99.90
28608;DHT22;15802;45.654;13.804;2023-04-19T01:12:51;14.60;99.90
28608;DHT22;15802;45.654;13.804;2023-04-19T01:15:17;14.60;99.90
28608;DHT22;15802;45.654;13.804;2023-04-19T01:17:43;14.60;99.90
28608;DHT22;15802;45.654;13.804;2023-04-19T01:20:08;14.60;99.90
28608;DHT22;15802;45.654;13.804;2023-04-19T01:22:35;14.50;99.90
28608;DHT22;15802;45.654;13.804;2023-04-19T01:25:02;14.50;99.90
28608;DHT22;15802;45.654;13.804;2023-04-19T01:27:31;14.60;99.90
28608;DHT22;15802;45.654;13.804;2023-04-19T01:29:57;14.60;99.90
28608;DHT22;15802;45.654;13.804;2023-04-19T01:32:23;14.60;99.90
28608;DHT22;15802;45.654;13.804;2023-04-19T01:34:51;14.50;99.90
28608;DHT22;15802;45.654;13.804;2023-04-19T01:37:16;14.50;99.90
28608;DHT22;15802;45.654;13.804;2023-04-19T01:39:42;14.50;99.90
28608;DHT22;15802;45.654;13.804;2023-04-19T01:42:08;14.50;99.90
28608;DHT22;15802;45.654;13.804;2023-04-19T01:44:33;14.60;99.90
28608;DHT22;15802;45.654;13.804;2023-04-19T01:46:59;14.60;99.90
28608;DHT22;15802;45.654;13.804;2023-04-19T01:49:24;14.60;99.90
28608;DHT22;15802;45.654;13.804;2023-04-19T01:51:50;14.60;99.90
28608;DHT22;15802;45.654;13.804;2023-04-19T01:54:16;14.70;99.90
28608;DHT22;15802;45.654;13.804;2023-04-19T01:56:42;14.70;99.90
28608;DHT22;15802;45.654;13.804;2023-04-19T01:59:07;14.60;99.90
28608;DHT22;15802;45.654;13.804;2023-04-19T02:01:33;14.60;99.90
28608;DHT22;15802;45.654;13.804;2023-04-19T02:03:59;14.60;99.90
28608;DHT22;15802;45.654;13.804;2023-04-19T02:06:26;14.50;99.90
28608;DHT22;15802;45.654;13.804;2023-04-19T02:08:52;14.50;99.90
28608;DHT22;15802;45.654;13.804;2023-04-19T02:11:17;14.50;99.90
28608;DHT22;15802;45.654;13.804;2023-04-19T02:13:43;14.50;99.90
28608;DHT22;15802;45.654;13.804;2023-04-19T02:16:09;14.50;99.90
28608;DHT22;15802;45.654;13.804;2023-04-19T02:18:35;14.60;99.90
28608;DHT22;15802;45.654;13.804;2023-04-19T02:21:03;14.60;99.90
28608;DHT22;15802;45.654;13.804;2023-04-19T02:23:29;14.50;99.90
28608;DHT22;15802;45.654;13.804;2023-04-19T02:25:58;14.50;99.90
28608;DHT22;15802;45.654;13.804;2023-04-19T02:28:43;14.50;99.90
28608;DHT22;15802;45.654;13.804;2023-04-19T02:31:09;14.60;99.90
28608;DHT22;15802;45.654;13.804;2023-04-19T02:33:35;14.60;99.90
28608;DHT22;15802;45.654;13.804;2023-04-19T02:36:01;14.50;99.90
28608;DHT22;15802;45.654;13.804;2023-04-19T02:38:27;14.50;99.90
28608;DHT22;15802;45.654;13.804;2023-04-19T02:40:52;14.50;99.90
28608;DHT22;15802;45.654;13.804;2023-04-19T02:43:18;14.50;99.90
28608;DHT22;15802;45.654;13.804;2023-04-19T02:45:46;14.40;99.90
28608;DHT22;15802;45.654;13.804;2023-04-19T02:48:12;14.30;99.90
28608;DHT22;15802;45.654;13.804;2023-04-19T02:50:37;14.20;99.90
28608;DHT22;15802;45.654;13.804;2023-04-19T02:53:03;14.10;99.90
28608;DHT22;15802;45.654;13.804;2023-04-19T02:55:29;14.10;99.90
28608;DHT22;15802;45.654;13.804;2023-04-19T02:57:54;14.10;99.90
28608;DHT22;15802;45.654;13.804;2023-04-19T03:00:20;14.10;99.90
28608;DHT22;15802;45.654;13.804;2023-04-19T03:02:46;14.20;99.90
28608;DHT22;15802;45.654;13.804;2023-04-19T03:05:11;14.20;99.90
28608;DHT22;15802;45.654;13.804;2023-04-19T03:07:37;14.10;99.90
28608;DHT22;15802;45.654;13.804;2023-04-19T03:10:03;14.00;99.90
28608;DHT22;15802;45.654;13.804;2023-04-19T03:12:28;14.00;99.90
28608;DHT22;15802;45.654;13.804;2023-04-19T03:14:54;14.00;99.90
28608;DHT22;15802;45.654;13.804;2023-04-19T03:17:20;14.00;99.90
28608;DHT22;15802;45.654;13.804;2023-04-19T03:19:49;14.00;99.90
28608;DHT22;15802;45.654;13.804;2023-04-19T03:22:14;14.10;99.90
28608;DHT22;15802;45.654;13.804;2023-04-19T03:24:40;14.10;99.90
28608;DHT22;15802;45.654;13.804;2023-04-19T03:27:06;14.10;99.90
28608;DHT22;15802;45.654;13.804;2023-04-19T03:29:31;14.20;99.90
28608;DHT22;15802;45.654;13.804;2023-04-19T03:31:57;14.20;99.90
28608;DHT22;15802;45.654;13.804;2023-04-19T03:34:23;14.20;99.90
28608;DHT22;15802;45.654;13.804;2023-04-19T03:36:49;14.30;99.90
28608;DHT22;15802;45.654;13.804;2023-04-19T03:39:15;14.30;99.90
28608;DHT22;15802;45.654;13.804;2023-04-19T03:41:46;14.30;99.90
28608;DHT22;15802;45.654;13.804;2023-04-19T03:44:36;14.30;99.90
28608;DHT22;15802;45.654;13.804;2023-04-19T03:47:09;14.40;99.90
28608;DHT22;15802;45.654;13.804;2023-04-19T03:52:43;14.40;99.90
28608;DHT22;15802;45.654;13.804;2023-04-19T03:55:29;14.40;99.90
28608;DHT22;15802;45.654;13.804;2023-04-19T03:57:58;14.30;99.90
28608;DHT22;15802;45.654;13.804;2023-04-19T04:00:50;14.40;99.90
28608;DHT22;15802;45.654;13.804;2023-04-19T04:03:18;14.30;99.90
28608;DHT22;15802;45.654;13.804;2023-04-19T04:05:53;14.40;99.90
28608;DHT22;15802;45.654;13.804;2023-04-19T04:08:32;14.40;99.90
28608;DHT22;15802;45.654;13.804;2023-04-19T04:11:37;14.40;99.90
28608;DHT22;15802;45.654;13.804;2023-04-19T04:14:05;14.40;99.90
28608;DHT22;15802;45.654;13.804;2023-04-19T04:16:48;14.40;99.90
28608;DHT22;15802;45.654;13.804;2023-04-19T04:22:28;14.40;99.90
28608;DHT22;15802;45.654;13.804;2023-04-19T04:25:14;14.30;99.90
28608;DHT22;15802;45.654;13.804;2023-04-19T04:30:48;14.40;99.90
28608;DHT22;15802;45.654;13.804;2023-04-19T04:38:50;14.30;99.90
28608;DHT22;15802;45.654;13.804;2023-04-19T04:44:22;14.30;99.90
28608;DHT22;15802;45.654;13.804;2023-04-19T04:47:19;14.30;99.90
28608;DHT22;15802;45.654;13.804;2023-04-19T04:50:00;14.30;99.90
28608;DHT22;15802;45.654;13.804;2023-04-19T04:52:57;14.40;99.90
28608;DHT22;15802;45.654;13.804;2023-04-19T04:55:26;14.40;99.90
28608;DHT22;15802;45.654;13.804;2023-04-19T04:57:52;14.40;99.90
28608;DHT22;15802;45.654;13.804;2023-04-19T05:00:46;14.30;99.90
28608;DHT22;15802;45.654;13.804;2023-04-19T05:03:43;14.30;99.90
28608;DHT22;15802;45.654;13.804;2023-04-19T05:06:17;14.30;99.90
28608;DHT22;15802;45.654;13.804;2023-04-19T05:08:55;14.30;99.90
28608;DHT22;15802;45.654;13.804;2023-04-19T05:11:24;14.30;99.90
28608;DHT22;15802;45.654;13.804;2023-04-19T05:14:01;14.30;99.90
28608;DHT22;15802;45.654;13.804;2023-04-19T05:16:29;14.30;99.90
28608;DHT22;15802;45.654;13.804;2023-04-19T05:19:03;14.30;99.90
28608;DHT22;15802;45.654;13.804;2023-04-19T05:21:39;14.20;99.90
28608;DHT22;15802;45.654;13.804;2023-04-19T05:24:27;14.20;99.90
28608;DHT22;15802;45.654;13.804;2023-04-19T05:27:06;14.20;99.90
28608;DHT22;15802;45.654;13.804;2023-04-19T05:29:40;14.30;99.90
28608;DHT22;15802;45.654;13.804;2023-04-19T05:32:52;14.30;99.90
28608;DHT22;15802;45.654;13.804;2023-04-19T05:38:16;14.40;99.90
28608;DHT22;15802;45.654;13.804;2023-04-19T05:40:48;14.20;99.90
28608;DHT22;15802;45.654;13.804;2023-04-19T05:43:31;14.10;99.90
28608;DHT22;15802;45.654;13.804;2023-04-19T05:46:25;14.00;99.90
28608;DHT22;15802;45.654;13.804;2023-04-19T05:48:53;13.80;99.90
28608;DHT22;15802;45.654;13.804;2023-04-19T05:51:28;13.80;99.90
28608;DHT22;15802;45.654;13.804;2023-04-19T05:54:17;13.90;99.90
28608;DHT22;15802;45.654;13.804;2023-04-19T05:56:49;13.90;99.90
28608;DHT22;15802;45.654;13.804;2023-04-19T05:59:18;14.00;99.90
28608;DHT22;15802;45.654;13.804;2023-04-19T06:04:19;14.10;99.90
28608;DHT22;15802;45.654;13.804;2023-04-19T06:07:09;14.10;99.90
28608;DHT22;15802;45.654;13.804;2023-04-19T06:09:58;14.20;99.90
28608;DHT22;15802;45.654;13.804;2023-04-19T06:21:29;14.30;99.90
28608;DHT22;15802;45.654;13.804;2023-04-19T06:36:00;14.70;99.90
28608;DHT22;15802;45.654;13.804;2023-04-19T06:41:21;14.70;99.90
28608;DHT22;15802;45.654;13.804;2023-04-19T07:02:29;15.20;99.90
28608;DHT22;15802;45.654;13.804;2023-04-19T07:23:57;15.90;99.90
28608;DHT22;15802;45.654;13.804;2023-04-19T07:35:20;16.00;99.90
28608;DHT22;15802;45.654;13.804;2023-04-19T07:40:36;15.70;99.90
28608;DHT22;15802;45.654;13.804;2023-04-19T07:43:04;15.80;99.90
28608;DHT22;15802;45.654;13.804;2023-04-19T07:45:31;15.80;99.90
28608;DHT22;15802;45.654;13.804;2023-04-19T07:47:59;15.90;99.90
28608;DHT22;15802;45.654;13.804;2023-04-19T07:51:19;15.90;99.90
28608;DHT22;15802;45.654;13.804;2023-04-19T07:53:22;15.90;99.90
28608;DHT22;15802;45.654;13.804;2023-04-19T07:55:48;16.10;99.90
28608;DHT22;15802;45.654;13.804;2023-04-19T07:58:14;16.20;99.90
28608;DHT22;15802;45.654;13.804;2023-04-19T08:00:40;16.20;99.90
28608;DHT22;15802;45.654;13.804;2023-04-19T08:03:05;16.30;99.90
28608;DHT22;15802;45.654;13.804;2023-04-19T08:05:33;16.30;99.90
28608;DHT22;15802;45.654;13.804;2023-04-19T08:07:59;16.30;99.90
28608;DHT22;15802;45.654;13.804;2023-04-19T08:10:25;16.30;99.90
28608;DHT22;15802;45.654;13.804;2023-04-19T08:12:53;16.20;99.90
28608;DHT22;15802;45.654;13.804;2023-04-19T08:15:18;16.30;99.90
28608;DHT22;15802;45.654;13.804;2023-04-19T08:17:44;16.40;99.90
28608;DHT22;15802;45.654;13.804;2023-04-19T08:20:13;16.60;99.90
28608;DHT22;15802;45.654;13.804;2023-04-19T08:22:40;16.70;99.90
28608;DHT22;15802;45.654;13.804;2023-04-19T08:25:06;16.90;99.90
28608;DHT22;15802;45.654;13.804;2023-04-19T08:27:32;17.00;99.90
28608;DHT22;15802;45.654;13.804;2023-04-19T08:30:07;17.10;99.90
28608;DHT22;15802;45.654;13.804;2023-04-19T08:32:53;17.20;99.90
28608;DHT22;15802;45.654;13.804;2023-04-19T08:35:19;17.30;99.90
28608;DHT22;15802;45.654;13.804;2023-04-19T08:37:54;17.40;99.90
28608;DHT22;15802;45.654;13.804;2023-04-19T08:40:20;17.40;99.90
28608;DHT22;15802;45.654;13.804;2023-04-19T08:42:46;17.40;99.90
28608;DHT22;15802;45.654;13.804;2023-04-19T08:45:12;17.50;99.90
28608;DHT22;15802;45.654;13.804;2023-04-19T08:47:38;17.60;99.90
28608;DHT22;15802;45.654;13.804;2023-04-19T08:50:05;17.80;99.90
28608;DHT22;15802;45.654;13.804;2023-04-19T08:52:34;18.10;99.90
28608;DHT22;15802;45.654;13.804;2023-04-19T08:55:02;18.20;99.90
28608;DHT22;15802;45.654;13.804;2023-04-19T08:57:29;18.40;99.90
28608;DHT22;15802;45.654;13.804;2023-04-19T08:59:55;18.60;99.90
28608;DHT22;15802;45.654;13.804;2023-04-19T09:02:22;18.70;99.90
28608;DHT22;15802;45.654;13.804;2023-04-19T09:04:48;18.80;99.90
28608;DHT22;15802;45.654;13.804;2023-04-19T09:07:22;18.70;99.90
28608;DHT22;15802;45.654;13.804;2023-04-19T09:10:03;18.60;99.90
28608;DHT22;15802;45.654;13.804;2023-04-19T09:12:29;18.70;99.90
28608;DHT22;15802;45.654;13.804;2023-04-19T09:14:55;18.80;99.90
28608;DHT22;15802;45.654;13.804;2023-04-19T09:17:21;19.00;99.90
28608;DHT22;15802;45.654;13.804;2023-04-19T09:19:47;19.10;99.90
28608;DHT22;15802;45.654;13.804;2023-04-19T09:22:13;19.10;99.90
28608;DHT22;15802;45.654;13.804;2023-04-19T09:24:43;19.10;99.90
28608;DHT22;15802;45.654;13.804;2023-04-19T09:27:11;19.00;99.90
28608;DHT22;15802;45.654;13.804;2023-04-19T09:29:45;18.90;99.90
28608;DHT22;15802;45.654;13.804;2023-04-19T09:32:17;18.80;99.90
28608;DHT22;15802;45.654;13.804;2023-04-19T09:34:58;18.80;99.90
28608;DHT22;15802;45.654;13.804;2023-04-19T09:37:24;18.80;99.90
28608;DHT22;15802;45.654;13.804;2023-04-19T09:39:51;18.90;99.90
28608;DHT22;15802;45.654;13.804;2023-04-19T09:42:16;18.80;99.90
28608;DHT22;15802;45.654;13.804;2023-04-19T09:44:59;18.90;99.90
28608;DHT22;15802;45.654;13.804;2023-04-19T09:47:25;19.00;99.90
28608;DHT22;15802;45.654;13.804;2023-04-19T09:50:04;19.00;99.90
28608;DHT22;15802;45.654;13.804;2023-04-19T09:55:33;19.20;99.90
28608;DHT22;15802;45.654;13.804;2023-04-19T09:58:03;19.30;99.90
28608;DHT22;15802;45.654;13.804;2023-04-19T10:00:28;19.40;99.90
28608;DHT22;15802;45.654;13.804;2023-04-19T10:02:54;19.70;99.90
28608;DHT22;15802;45.654;13.804;2023-04-19T10:05:22;19.70;99.90
28608;DHT22;15802;45.654;13.804;2023-04-19T10:07:48;19.70;99.90
28608;DHT22;15802;45.654;13.804;2023-04-19T10:10:15;19.70;99.90
28608;DHT22;15802;45.654;13.804;2023-04-19T10:12:43;19.60;99.90
28608;DHT22;15802;45.654;13.804;2023-04-19T10:15:10;19.60;99.90
28608;DHT22;15802;45.654;13.804;2023-04-19T10:17:37;19.30;99.90
28608;DHT22;15802;45.654;13.804;2023-04-19T10:20:05;18.90;99.90
28608;DHT22;15802;45.654;13.804;2023-04-19T10:22:35;18.60;99.90
28608;DHT22;15802;45.654;13.804;2023-04-19T10:25:06;18.40;99.90
28608;DHT22;15802;45.654;13.804;2023-04-19T10:27:35;18.50;99.90
28608;DHT22;15802;45.654;13.804;2023-04-19T10:30:02;18.60;99.90
28608;DHT22;15802;45.654;13.804;2023-04-19T10:32:38;18.60;99.90
28608;DHT22;15802;45.654;13.804;2023-04-19T10:35:08;18.50;99.90
28608;DHT22;15802;45.654;13.804;2023-04-19T10:37:39;18.40;99.90
28608;DHT22;15802;45.654;13.804;2023-04-19T10:40:38;18.30;99.90
28608;DHT22;15802;45.654;13.804;2023-04-19T10:43:16;18.50;99.90
28608;DHT22;15802;45.654;13.804;2023-04-19T10:45:42;18.90;99.90
28608;DHT22;15802;45.654;13.804;2023-04-19T10:48:30;19.10;99.90
28608;DHT22;15802;45.654;13.804;2023-04-19T10:51:18;19.10;99.90
28608;DHT22;15802;45.654;13.804;2023-04-19T10:53:46;19.00;99.90
28608;DHT22;15802;45.654;13.804;2023-04-19T10:56:12;19.00;99.90
28608;DHT22;15802;45.654;13.804;2023-04-19T11:01:37;19.50;99.90
28608;DHT22;15802;45.654;13.804;2023-04-19T11:09:28;19.10;99.90
28608;DHT22;15802;45.654;13.804;2023-04-19T11:11:58;19.10;99.90
28608;DHT22;15802;45.654;13.804;2023-04-19T11:14:26;19.00;99.90
28608;DHT22;15802;45.654;13.804;2023-04-19T11:16:51;18.90;99.90
28608;DHT22;15802;45.654;13.804;2023-04-19T11:19:18;18.80;99.90
28608;DHT22;15802;45.654;13.804;2023-04-19T11:21:46;18.70;99.90
28608;DHT22;15802;45.654;13.804;2023-04-19T11:24:12;18.60;99.90
28608;DHT22;15802;45.654;13.804;2023-04-19T11:29:10;18.50;99.90
28608;DHT22;15802;45.654;13.804;2023-04-19T11:31:36;18.60;99.90
28608;DHT22;15802;45.654;13.804;2023-04-19T11:34:02;19.00;99.90
28608;DHT22;15802;45.654;13.804;2023-04-19T11:36:28;19.30;99.90
28608;DHT22;15802;45.654;13.804;2023-04-19T11:38:54;19.60;99.90
28608;DHT22;15802;45.654;13.804;2023-04-19T11:41:19;19.90;99.90
28608;DHT22;15802;45.654;13.804;2023-04-19T11:43:45;20.00;99.90
28608;DHT22;15802;45.654;13.804;2023-04-19T11:46:12;20.20;99.90
28608;DHT22;15802;45.654;13.804;2023-04-19T11:48:48;20.50;99.90
28608;DHT22;15802;45.654;13.804;2023-04-19T11:51:14;20.70;99.90
28608;DHT22;15802;45.654;13.804;2023-04-19T11:53:40;20.80;99.90
28608;DHT22;15802;45.654;13.804;2023-04-19T11:56:06;20.80;99.90
28608;DHT22;15802;45.654;13.804;2023-04-19T12:01:02;20.60;99.90
28608;DHT22;15802;45.654;13.804;2023-04-19T12:03:30;20.40;99.90
28608;DHT22;15802;45.654;13.804;2023-04-19T12:05:57;20.20;99.90
28608;DHT22;15802;45.654;13.804;2023-04-19T12:08:31;20.20;99.90
28608;DHT22;15802;45.654;13.804;2023-04-19T12:10:57;20.20;99.90
28608;DHT22;15802;45.654;13.804;2023-04-19T12:13:24;20.10;99.90
28608;DHT22;15802;45.654;13.804;2023-04-19T12:15:50;19.90;99.90
28608;DHT22;15802;45.654;13.804;2023-04-19T12:18:16;19.50;99.90
28608;DHT22;15802;45.654;13.804;2023-04-19T12:20:44;19.20;99.90
28608;DHT22;15802;45.654;13.804;2023-04-19T12:23:11;19.30;99.90
28608;DHT22;15802;45.654;13.804;2023-04-19T12:25:38;19.30;99.90
28608;DHT22;15802;45.654;13.804;2023-04-19T12:28:04;19.20;99.90
28608;DHT22;15802;45.654;13.804;2023-04-19T12:30:30;19.20;99.90
28608;DHT22;15802;45.654;13.804;2023-04-19T12:32:57;19.30;99.90
28608;DHT22;15802;45.654;13.804;2023-04-19T12:35:24;19.40;99.90
28608;DHT22;15802;45.654;13.804;2023-04-19T12:37:51;19.60;99.90
28608;DHT22;15802;45.654;13.804;2023-04-19T12:40:17;19.70;99.90
28608;DHT22;15802;45.654;13.804;2023-04-19T12:42:45;19.80;99.90
28608;DHT22;15802;45.654;13.804;2023-04-19T12:45:14;20.20;99.90
28608;DHT22;15802;45.654;13.804;2023-04-19T12:47:40;20.50;99.90
28608;DHT22;15802;45.654;13.804;2023-04-19T12:50:06;20.80;99.90
28608;DHT22;15802;45.654;13.804;2023-04-19T12:52:33;21.20;99.90
28608;DHT22;15802;45.654;13.804;2023-04-19T12:54:58;21.60;99.90
28608;DHT22;15802;45.654;13.804;2023-04-19T13:00:27;21.10;99.90
28608;DHT22;15802;45.654;13.804;2023-04-19T13:05:59;20.60;99.90
28608;DHT22;15802;45.654;13.804;2023-04-19T13:08:25;20.40;99.90
28608;DHT22;15802;45.654;13.804;2023-04-19T13:10:51;20.20;99.90
28608;DHT22;15802;45.654;13.804;2023-04-19T13:13:17;19.70;99.90
28608;DHT22;15802;45.654;13.804;2023-04-19T13:16:04;19.20;99.90
28608;DHT22;15802;45.654;13.804;2023-04-19T13:18:30;18.90;99.90
28608;DHT22;15802;45.654;13.804;2023-04-19T13:21:02;18.70;99.90
28608;DHT22;15802;45.654;13.804;2023-04-19T13:29:56;18.50;99.90
28608;DHT22;15802;45.654;13.804;2023-04-19T13:32:22;18.40;99.90
28608;DHT22;15802;45.654;13.804;2023-04-19T13:34:48;18.30;99.90
28608;DHT22;15802;45.654;13.804;2023-04-19T13:37:13;18.20;99.90
28608;DHT22;15802;45.654;13.804;2023-04-19T13:39:39;18.20;99.90
28608;DHT22;15802;45.654;13.804;2023-04-19T13:42:07;18.10;99.90
28608;DHT22;15802;45.654;13.804;2023-04-19T13:44:33;18.10;99.90
28608;DHT22;15802;45.654;13.804;2023-04-19T13:46:58;18.00;99.90
28608;DHT22;15802;45.654;13.804;2023-04-19T13:49:27;17.90;99.90
28608;DHT22;15802;45.654;13.804;2023-04-19T13:51:53;17.70;99.90
28608;DHT22;15802;45.654;13.804;2023-04-19T13:54:18;17.60;99.90
28608;DHT22;15802;45.654;13.804;2023-04-19T13:56:45;17.40;99.90
28608;DHT22;15802;45.654;13.804;2023-04-19T13:59:11;17.20;99.90
28608;DHT22;15802;45.654;13.804;2023-04-19T14:01:36;17.10;99.90
28608;DHT22;15802;45.654;13.804;2023-04-19T14:04:05;17.10;99.90
28608;DHT22;15802;45.654;13.804;2023-04-19T14:06:30;17.20;99.90
28608;DHT22;15802;45.654;13.804;2023-04-19T14:08:57;17.40;99.90
28608;DHT22;15802;45.654;13.804;2023-04-19T14:11:24;17.50;99.90
28608;DHT22;15802;45.654;13.804;2023-04-19T14:13:49;17.60;99.90
28608;DHT22;15802;45.654;13.804;2023-04-19T14:16:24;17.60;99.90
28608;DHT22;15802;45.654;13.804;2023-04-19T14:18:54;17.70;99.90
28608;DHT22;15802;45.654;13.804;2023-04-19T14:21:20;17.70;99.90
28608;DHT22;15802;45.654;13.804;2023-04-19T14:23:46;17.70;99.90
28608;DHT22;15802;45.654;13.804;2023-04-19T14:26:15;17.70;99.90
28608;DHT22;15802;45.654;13.804;2023-04-19T14:28:40;17.70;99.90
28608;DHT22;15802;45.654;13.804;2023-04-19T14:31:06;17.70;99.90
28608;DHT22;15802;45.654;13.804;2023-04-19T14:33:32;17.60;99.90
28608;DHT22;15802;45.654;13.804;2023-04-19T14:36:00;17.30;99.90
28608;DHT22;15802;45.654;13.804;2023-04-19T14:38:26;17.30;99.90
28608;DHT22;15802;45.654;13.804;2023-04-19T14:40:52;17.30;99.90
28608;DHT22;15802;45.654;13.804;2023-04-19T14:43:17;17.30;99.90
28608;DHT22;15802;45.654;13.804;2023-04-19T14:45:43;17.30;99.90
28608;DHT22;15802;45.654;13.804;2023-04-19T14:48:11;17.30;99.90
28608;DHT22;15802;45.654;13.804;2023-04-19T14:50:37;17.40;99.90
28608;DHT22;15802;45.654;13.804;2023-04-19T14:53:03;17.50;99.90
28608;DHT22;15802;45.654;13.804;2023-04-19T14:55:32;17.50;99.90
28608;DHT22;15802;45.654;13.804;2023-04-19T14:57:57;17.60;99.90
28608;DHT22;15802;45.654;13.804;2023-04-19T15:00:23;17.60;99.90
28608;DHT22;15802;45.654;13.804;2023-04-19T15:02:53;17.60;99.90
28608;DHT22;15802;45.654;13.804;2023-04-19T15:05:22;17.70;99.90
28608;DHT22;15802;45.654;13.804;2023-04-19T15:07:48;17.80;99.90
28608;DHT22;15802;45.654;13.804;2023-04-19T15:10:14;17.80;99.90
28608;DHT22;15802;45.654;13.804;2023-04-19T15:12:43;17.80;99.90
28608;DHT22;15802;45.654;13.804;2023-04-19T15:15:09;17.80;99.90
28608;DHT22;15802;45.654;13.804;2023-04-19T15:17:37;17.90;99.90
28608;DHT22;15802;45.654;13.804;2023-04-19T15:20:03;18.00;99.90
28608;DHT22;15802;45.654;13.804;2023-04-19T15:22:31;18.20;99.90
28608;DHT22;15802;45.654;13.804;2023-04-19T15:24:57;18.10;99.90
28608;DHT22;15802;45.654;13.804;2023-04-19T15:27:22;18.10;99.90
28608;DHT22;15802;45.654;13.804;2023-04-19T15:29:48;18.00;99.90
28608;DHT22;15802;45.654;13.804;2023-04-19T15:32:14;18.00;99.90
28608;DHT22;15802;45.654;13.804;2023-04-19T15:34:40;17.90;99.90
28608;DHT22;15802;45.654;13.804;2023-04-19T15:37:11;17.90;99.90
28608;DHT22;15802;45.654;13.804;2023-04-19T15:39:36;18.00;99.90
28608;DHT22;15802;45.654;13.804;2023-04-19T15:42:02;18.10;99.90
28608;DHT22;15802;45.654;13.804;2023-04-19T15:44:28;18.00;99.90
28608;DHT22;15802;45.654;13.804;2023-04-19T15:46:54;17.90;99.90
28608;DHT22;15802;45.654;13.804;2023-04-19T15:49:20;17.90;99.90
28608;DHT22;15802;45.654;13.804;2023-04-19T15:51:46;17.90;99.90
28608;DHT22;15802;45.654;13.804;2023-04-19T15:54:12;17.90;99.90
28608;DHT22;15802;45.654;13.804;2023-04-19T15:56:40;17.90;99.90
28608;DHT22;15802;45.654;13.804;2023-04-19T15:59:06;17.80;99.90
28608;DHT22;15802;45.654;13.804;2023-04-19T16:01:32;17.80;99.90
28608;DHT22;15802;45.654;13.804;2023-04-19T16:03:57;17.80;99.90
28608;DHT22;15802;45.654;13.804;2023-04-19T16:06:23;17.80;99.90
28608;DHT22;15802;45.654;13.804;2023-04-19T16:08:49;17.70;99.90
28608;DHT22;15802;45.654;13.804;2023-04-19T16:11:15;17.70;99.90
28608;DHT22;15802;45.654;13.804;2023-04-19T16:13:41;17.80;99.90
28608;DHT22;15802;45.654;13.804;2023-04-19T16:16:06;17.90;99.90
28608;DHT22;15802;45.654;13.804;2023-04-19T16:18:35;17.90;99.90
28608;DHT22;15802;45.654;13.804;2023-04-19T16:21:09;17.80;99.90
28608;DHT22;15802;45.654;13.804;2023-04-19T16:23:35;17.70;99.90
28608;DHT22;15802;45.654;13.804;2023-04-19T16:29:10;17.50;99.90
28608;DHT22;15802;45.654;13.804;2023-04-19T16:34:05;17.30;99.90
28608;DHT22;15802;45.654;13.804;2023-04-19T16:39:09;17.20;99.90
28608;DHT22;15802;45.654;13.804;2023-04-19T16:41:35;17.10;99.90
28608;DHT22;15802;45.654;13.804;2023-04-19T16:44:01;17.10;99.90
28608;DHT22;15802;45.654;13.804;2023-04-19T16:46:27;17.10;99.90
28608;DHT22;15802;45.654;13.804;2023-04-19T16:48:52;17.00;99.90
28608;DHT22;15802;45.654;13.804;2023-04-19T16:51:27;16.90;99.90
28608;DHT22;15802;45.654;13.804;2023-04-19T16:56:55;16.70;99.90
28608;DHT22;15802;45.654;13.804;2023-04-19T17:01:52;16.40;99.90
28608;DHT22;15802;45.654;13.804;2023-04-19T17:04:19;16.40;99.90
28608;DHT22;15802;45.654;13.804;2023-04-19T17:06:48;16.30;99.90
28608;DHT22;15802;45.654;13.804;2023-04-19T17:09:15;16.30;99.90
28608;DHT22;15802;45.654;13.804;2023-04-19T17:11:41;16.20;99.90
28608;DHT22;15802;45.654;13.804;2023-04-19T17:14:07;16.00;99.90
28608;DHT22;15802;45.654;13.804;2023-04-19T17:16:33;15.90;99.90
28608;DHT22;15802;45.654;13.804;2023-04-19T17:19:01;15.80;99.90
28608;DHT22;15802;45.654;13.804;2023-04-19T17:21:29;15.80;99.90
28608;DHT22;15802;45.654;13.804;2023-04-19T17:23:55;15.70;99.90
28608;DHT22;15802;45.654;13.804;2023-04-19T17:26:21;15.70;99.90
28608;DHT22;15802;45.654;13.804;2023-04-19T17:28:47;15.60;99.90
28608;DHT22;15802;45.654;13.804;2023-04-19T17:31:15;15.50;99.90
28608;DHT22;15802;45.654;13.804;2023-04-19T17:33:41;15.50;99.90
28608;DHT22;15802;45.654;13.804;2023-04-19T17:36:07;15.40;99.90
28608;DHT22;15802;45.654;13.804;2023-04-19T17:38:32;15.30;99.90
28608;DHT22;15802;45.654;13.804;2023-04-19T17:41:07;15.40;99.90
28608;DHT22;15802;45.654;13.804;2023-04-19T17:43:41;15.30;99.90
28608;DHT22;15802;45.654;13.804;2023-04-19T17:46:06;15.20;99.90